createdAt,value
2023-06-17T00:11:51.274Z,41.57
2023-06-17T00:17:12.696Z,41.63
2023-06-17T00:22:31.890Z,41.28
2023-06-17T00:27:45.533Z,41.12
2023-06-17T00:33:02.198Z,42.19
2023-06-17T00:38:12.633Z,41.47
2023-06-17T00:43:27.263Z,42.21
2023-06-17T00:48:41.788Z,42.63
2023-06-17T00:53:52.208Z,42.43
2023-06-17T00:59:02.524Z,41.91
2023-06-17T01:04:26.865Z,43.09
2023-06-17T01:09:46.826Z,42.75
2023-06-17T01:15:03.371Z,42.86
2023-06-17T01:20:21.990Z,43.43
2023-06-17T01:25:51.456Z,43.43
2023-06-17T01:36:43.687Z,43.58
2023-06-17T01:42:03.544Z,43.60
2023-06-17T01:47:14.435Z,43.46
2023-06-17T01:52:23.158Z,43.69
2023-06-17T01:57:37.604Z,44.55
2023-06-17T02:02:48.556Z,43.82
2023-06-17T02:08:01.243Z,44.00
2023-06-17T02:13:16.595Z,44.48
2023-06-17T02:18:26.021Z,43.78
2023-06-17T02:23:44.402Z,44.36
2023-06-17T02:28:58.884Z,44.74
2023-06-17T02:34:11.546Z,44.40
2023-06-17T02:39:20.235Z,44.54
2023-06-17T02:44:31.763Z,44.93
2023-06-17T02:49:40.796Z,44.85
2023-06-17T02:54:52.765Z,44.45
2023-06-17T03:00:06.523Z,45.35
2023-06-17T03:05:16.703Z,44.70
2023-06-17T03:10:25.020Z,44.83
2023-06-17T03:15:37.632Z,45.21
2023-06-17T03:20:45.971Z,44.96
2023-06-17T03:25:55.445Z,45.07
2023-06-17T03:31:07.042Z,45.26
2023-06-17T03:36:15.372Z,45.43
2023-06-17T03:41:23.394Z,45.41
2023-06-17T03:46:34.199Z,45.99
2023-06-17T03:51:42.739Z,45.39
2023-06-17T03:56:50.705Z,45.68
2023-06-17T04:02:02.215Z,46.10
2023-06-17T04:07:10.414Z,45.93
2023-06-17T04:12:21.038Z,46.21
2023-06-17T04:17:32.705Z,46.43
2023-06-17T04:22:42.738Z,46.16
2023-06-17T04:27:58.030Z,46.40
2023-06-17T04:33:14.041Z,46.59
2023-06-17T04:38:27.771Z,46.29
2023-06-17T04:43:51.464Z,46.98
2023-06-17T04:49:05.767Z,46.69
2023-06-17T04:54:14.547Z,46.51
2023-06-17T04:59:28.058Z,46.66
2023-06-17T05:04:51.162Z,47.30
2023-06-17T05:10:00.174Z,46.74
2023-06-17T05:15:13.911Z,47.09
2023-06-17T05:20:45.084Z,47.95
2023-06-17T05:26:00.281Z,47.44
2023-06-17T05:31:13.241Z,47.24
2023-06-17T05:36:38.714Z,48.02
2023-06-17T05:41:48.007Z,47.43
2023-06-17T05:46:57.289Z,46.94
2023-06-17T05:52:10.074Z,47.55
2023-06-17T05:57:23.196Z,46.89
2023-06-17T06:02:33.231Z,46.49
2023-06-17T06:07:47.982Z,46.18
2023-06-17T06:13:00.175Z,45.98
2023-06-17T06:18:18.698Z,45.79
2023-06-17T06:29:19.100Z,45.62
2023-06-17T06:52:15.241Z,44.67
2023-06-17T07:09:11.759Z,43.63
2023-06-17T07:14:33.625Z,43.35
2023-06-17T07:31:38.113Z,42.90
2023-06-17T07:54:09.591Z,41.85
2023-06-17T08:22:49.794Z,39.81
2023-06-17T08:28:15.255Z,39.30
2023-06-17T08:33:26.418Z,39.29
2023-06-17T08:38:44.264Z,39.79
2023-06-17T08:44:03.196Z,38.45
2023-06-17T08:49:15.124Z,38.69
2023-06-17T08:54:27.039Z,38.65
2023-06-17T08:59:35.921Z,37.71
2023-06-17T09:04:44.453Z,38.08
2023-06-17T09:09:59.557Z,37.95
2023-06-17T09:15:09.437Z,37.51
2023-06-17T09:20:20.142Z,36.49
2023-06-17T09:25:31.955Z,37.30
2023-06-17T09:30:45.237Z,37.31
2023-06-17T09:36:02.917Z,37.11
2023-06-17T09:41:17.833Z,36.96
2023-06-17T09:46:33.391Z,36.68
2023-06-17T09:51:42.656Z,36.72
2023-06-17T09:56:54.542Z,36.08
2023-06-17T10:02:02.670Z,36.30
2023-06-17T10:07:12.059Z,35.96
2023-06-17T10:12:25.717Z,35.80
2023-06-17T10:17:36.708Z,34.99
2023-06-17T10:22:47.599Z,35.12
2023-06-17T10:27:58.090Z,35.40
2023-06-17T10:33:07.161Z,35.10
2023-06-17T10:38:31.993Z,35.05
2023-06-17T10:43:42.380Z,34.78
2023-06-17T10:48:50.831Z,34.61
2023-06-17T10:54:01.186Z,34.95
2023-06-17T10:59:11.547Z,34.42
2023-06-17T11:04:19.422Z,34.24
2023-06-17T11:09:34.986Z,34.53
2023-06-17T11:14:45.516Z,33.80
2023-06-17T11:19:56.662Z,33.85
2023-06-17T11:25:05.810Z,33.58
2023-06-17T11:30:19.398Z,34.12
2023-06-17T11:35:28.882Z,33.83
2023-06-17T11:40:36.988Z,33.66
2023-06-17T11:45:47.612Z,33.91
2023-06-17T11:50:57.512Z,33.61
2023-06-17T11:56:09.749Z,33.67
2023-06-17T12:01:20.407Z,33.51
2023-06-17T12:06:29.346Z,33.45
2023-06-17T12:11:39.519Z,32.99
2023-06-17T12:16:49.917Z,32.88
2023-06-17T12:22:01.970Z,32.81
2023-06-17T12:27:12.147Z,32.72
2023-06-17T12:32:22.578Z,32.41
2023-06-17T12:37:33.020Z,32.26
2023-06-17T12:42:41.047Z,32.40
2023-06-17T12:47:52.699Z,32.66
2023-06-17T12:53:00.972Z,32.49
2023-06-17T12:58:09.334Z,32.71
2023-06-17T13:03:20.409Z,31.95
2023-06-17T13:08:29.089Z,31.78
2023-06-17T13:13:39.284Z,31.14
2023-06-17T13:18:49.727Z,31.94
2023-06-17T13:23:58.097Z,31.39
2023-06-17T13:29:06.176Z,31.07
2023-06-17T13:34:17.263Z,30.79
2023-06-17T13:39:27.433Z,30.79
2023-06-17T13:44:35.577Z,30.39
2023-06-17T13:49:46.322Z,30.27
2023-06-17T13:54:54.024Z,30.68
2023-06-17T14:00:01.895Z,30.51
2023-06-17T14:05:15.214Z,30.71
2023-06-17T14:10:25.789Z,29.92
2023-06-17T14:15:33.743Z,30.42
2023-06-17T14:20:44.198Z,29.97
2023-06-17T14:25:55.014Z,30.75
2023-06-17T14:31:03.340Z,30.36
